createdAt,value
2022-09-25T00:01:34.118Z,30.20
2022-09-25T00:04:03.010Z,27.40
2022-09-25T00:06:33.989Z,30.17
2022-09-25T00:09:03.026Z,30.75
2022-09-25T00:11:33.954Z,31.13
2022-09-25T00:14:03.475Z,30.10
2022-09-25T00:16:33.797Z,29.48
2022-09-25T00:19:20.803Z,29.58
2022-09-25T00:21:53.106Z,29.92
2022-09-25T00:24:22.331Z,28.83
2022-09-25T00:26:51.132Z,28.88
2022-09-25T00:29:21.455Z,26.23
2022-09-25T00:31:49.775Z,28.27
2022-09-25T00:34:18.097Z,27.63
2022-09-25T00:36:46.684Z,27.23
2022-09-25T00:39:16.320Z,26.13
2022-09-25T00:41:44.575Z,27.80
2022-09-25T00:44:56.798Z,29.25
2022-09-25T00:47:48.662Z,28.13
2022-09-25T00:50:33.433Z,28.27
2022-09-25T00:53:09.318Z,29.02
2022-09-25T00:55:44.786Z,29.73
2022-09-25T00:58:17.926Z,29.30
2022-09-25T01:00:46.977Z,28.98
2022-09-25T01:03:17.988Z,29.80
2022-09-25T01:05:47.357Z,27.87
2022-09-25T01:08:23.445Z,29.60
2022-09-25T01:10:53.465Z,28.58
2022-09-25T01:13:22.017Z,26.80
2022-09-25T01:16:00.393Z,25.80
2022-09-25T01:18:56.035Z,25.73
2022-09-25T01:21:34.663Z,22.37
2022-09-25T01:24:32.785Z,21.10
2022-09-25T01:28:00.341Z,20.80
2022-09-25T01:30:34.840Z,23.23
2022-09-25T01:33:14.429Z,25.30
2022-09-25T01:35:53.240Z,25.47
2022-09-25T01:38:32.916Z,28.03
2022-09-25T01:41:13.146Z,27.20
2022-09-25T01:43:50.509Z,26.05
2022-09-25T01:46:24.932Z,27.50
2022-09-25T01:49:00.484Z,27.37
2022-09-25T01:51:36.872Z,27.90
2022-09-25T01:54:09.962Z,27.80
2022-09-25T01:56:47.548Z,27.40
2022-09-25T01:59:23.103Z,27.23
2022-09-25T02:01:57.241Z,27.35
2022-09-25T02:04:32.988Z,26.10
2022-09-25T02:07:08.877Z,27.75
2022-09-25T02:09:45.907Z,30.65
2022-09-25T02:12:20.014Z,30.75
2022-09-25T02:14:55.242Z,31.02
2022-09-25T02:17:50.852Z,34.50
2022-09-25T02:20:36.344Z,35.42
2022-09-25T02:23:18.727Z,31.40
2022-09-25T02:25:59.534Z,33.07
2022-09-25T02:28:28.252Z,33.88
2022-09-25T02:31:00.248Z,35.10
2022-09-25T02:33:30.063Z,33.33
2022-09-25T02:36:02.329Z,33.75
2022-09-25T02:38:33.629Z,31.73
2022-09-25T02:41:18.513Z,30.88
2022-09-25T02:43:58.286Z,31.00
2022-09-25T02:46:43.421Z,30.27
2022-09-25T02:49:25.705Z,28.35
2022-09-25T02:52:06.992Z,29.42
2022-09-25T02:54:45.477Z,27.92
2022-09-25T02:57:22.753Z,29.40
2022-09-25T02:59:57.802Z,28.35
2022-09-25T03:02:29.409Z,30.83
2022-09-25T03:05:02.010Z,28.83
2022-09-25T03:07:50.337Z,29.90
2022-09-25T03:10:19.715Z,34.05
2022-09-25T03:12:48.018Z,36.00
2022-09-25T03:15:16.754Z,35.45
2022-09-25T03:17:45.157Z,35.42
2022-09-25T03:20:15.141Z,31.92
2022-09-25T03:22:43.362Z,32.28
2022-09-25T03:25:12.189Z,34.10
2022-09-25T03:27:40.726Z,33.28
2022-09-25T03:30:10.528Z,32.22
2022-09-25T03:32:42.117Z,30.58
2022-09-25T03:35:11.104Z,35.28
2022-09-25T03:37:41.028Z,31.55
2022-09-25T03:40:10.786Z,37.08
2022-09-25T03:42:39.147Z,34.20
2022-09-25T03:45:09.989Z,31.58
2022-09-25T03:47:38.326Z,29.48
2022-09-25T03:50:08.381Z,33.25
2022-09-25T03:52:36.839Z,29.83
2022-09-25T03:55:07.931Z,32.92
2022-09-25T03:57:36.105Z,29.33
2022-09-25T04:00:05.739Z,32.40
2022-09-25T04:02:40.744Z,30.85
2022-09-25T04:05:10.506Z,31.92
2022-09-25T04:07:39.180Z,31.88
2022-09-25T04:10:10.181Z,30.50
2022-09-25T04:12:38.375Z,32.38
2022-09-25T04:15:09.572Z,33.08
2022-09-25T04:17:37.806Z,35.33
2022-09-25T04:20:06.834Z,31.23
2022-09-25T04:22:35.025Z,31.40
2022-09-25T04:25:03.582Z,34.17
2022-09-25T04:27:33.357Z,29.02
2022-09-25T04:30:02.170Z,35.72
2022-09-25T04:32:47.963Z,36.47
2022-09-25T04:35:16.314Z,33.40
2022-09-25T04:37:44.981Z,31.23
2022-09-25T04:40:13.445Z,33.90
2022-09-25T04:42:43.675Z,36.55
2022-09-25T04:45:12.547Z,34.38
2022-09-25T04:47:40.835Z,33.50
2022-09-25T04:50:10.178Z,33.92
2022-09-25T04:52:38.631Z,32.55
2022-09-25T04:55:07.875Z,36.95
2022-09-25T04:57:59.793Z,36.80
2022-09-25T05:00:29.428Z,31.60
2022-09-25T05:02:58.406Z,36.95
2022-09-25T05:05:29.249Z,33.10
2022-09-25T05:07:59.710Z,38.78
2022-09-25T05:10:30.683Z,35.42
2022-09-25T05:13:00.986Z,29.50
2022-09-25T05:15:33.180Z,32.67
2022-09-25T05:18:02.853Z,32.90
2022-09-25T05:20:31.260Z,30.02
2022-09-25T05:23:01.385Z,35.17
2022-09-25T05:25:29.615Z,36.55
2022-09-25T05:28:01.022Z,31.08
2022-09-25T05:30:33.854Z,35.58
2022-09-25T05:33:02.754Z,35.20
2022-09-25T05:35:33.951Z,35.53
2022-09-25T05:38:02.713Z,35.72
2022-09-25T05:40:31.018Z,34.67
2022-09-25T05:42:59.744Z,36.38
2022-09-25T05:45:27.992Z,34.45
2022-09-25T05:48:06.095Z,33.08
2022-09-25T05:50:35.058Z,33.75
2022-09-25T05:53:05.875Z,32.05
2022-09-25T05:55:34.425Z,27.52
2022-09-25T05:58:03.936Z,28.13
2022-09-25T06:00:33.702Z,28.55
2022-09-25T06:03:03.444Z,29.02
2022-09-25T06:05:32.586Z,31.50
2022-09-25T06:08:00.958Z,28.00
2022-09-25T06:10:31.044Z,32.85
2022-09-25T06:13:00.137Z,29.98
2022-09-25T06:15:29.727Z,30.63
2022-09-25T06:17:58.886Z,32.70
2022-09-25T06:20:28.981Z,32.92
2022-09-25T06:22:59.154Z,32.75
2022-09-25T06:25:30.885Z,30.45
2022-09-25T06:28:01.628Z,30.33
2022-09-25T06:30:34.542Z,30.88
2022-09-25T06:33:04.398Z,30.77
2022-09-25T06:35:35.369Z,31.67
2022-09-25T06:38:05.863Z,30.48
2022-09-25T06:40:34.361Z,30.38
2022-09-25T06:43:04.959Z,29.33
2022-09-25T06:45:35.991Z,30.05
2022-09-25T06:48:07.172Z,31.33
2022-09-25T06:50:43.554Z,31.25
2022-09-25T06:53:12.970Z,32.33
2022-09-25T06:55:42.381Z,33.45
2022-09-25T06:58:14.292Z,31.98
2022-09-25T07:00:47.437Z,31.35
2022-09-25T07:03:48.312Z,32.25
2022-09-25T07:06:20.106Z,29.45
2022-09-25T07:08:49.677Z,30.67
2022-09-25T07:11:20.538Z,28.60
2022-09-25T07:13:55.304Z,31.75
2022-09-25T07:16:28.288Z,30.42
2022-09-25T07:18:58.510Z,32.97
2022-09-25T07:21:30.797Z,31.60
2022-09-25T07:23:59.969Z,29.00
2022-09-25T07:26:34.006Z,27.35
2022-09-25T07:29:06.496Z,26.35
2022-09-25T07:31:37.954Z,28.08
2022-09-25T07:34:09.503Z,25.88
2022-09-25T07:36:42.654Z,29.02
2022-09-25T07:39:16.117Z,28.35
2022-09-25T07:41:46.600Z,29.92
2022-09-25T07:44:28.531Z,29.27
2022-09-25T07:47:00.874Z,31.58
2022-09-25T07:49:29.797Z,31.70
2022-09-25T07:51:59.854Z,32.03
2022-09-25T07:54:28.558Z,32.50
2022-09-25T07:56:57.086Z,35.30
2022-09-25T07:59:26.086Z,33.92
2022-09-25T08:01:54.951Z,33.92
2022-09-25T08:04:23.495Z,33.63
2022-09-25T08:06:51.903Z,34.83
2022-09-25T08:09:21.584Z,35.88
2022-09-25T08:11:50.005Z,35.33
2022-09-25T08:14:21.240Z,33.63
2022-09-25T08:16:55.161Z,33.58
2022-09-25T08:19:24.275Z,34.42
2022-09-25T08:21:52.649Z,34.60
2022-09-25T08:24:22.443Z,33.92
2022-09-25T08:26:51.162Z,32.00
2022-09-25T08:29:19.471Z,32.42
2022-09-25T08:31:48.083Z,32.33
2022-09-25T08:34:39.667Z,32.67
2022-09-25T08:37:08.436Z,32.25
2022-09-25T08:39:38.936Z,30.60
2022-09-25T08:42:07.559Z,32.05
2022-09-25T08:44:52.596Z,32.33
2022-09-25T08:47:48.503Z,30.48
2022-09-25T08:50:21.796Z,31.35
2022-09-25T08:52:56.951Z,31.20
2022-09-25T08:55:51.720Z,31.23
2022-09-25T08:58:28.634Z,30.27
2022-09-25T09:01:14.229Z,29.85
2022-09-25T09:03:54.332Z,31.83
2022-09-25T09:06:26.974Z,30.08
2022-09-25T09:09:03.629Z,32.38
2022-09-25T09:11:40.979Z,30.77
2022-09-25T09:14:18.501Z,31.15
2022-09-25T09:16:57.109Z,32.60
2022-09-25T09:19:25.994Z,31.25
2022-09-25T09:22:04.615Z,32.58
2022-09-25T09:24:49.867Z,31.98
2022-09-25T09:27:51.269Z,31.73
2022-09-25T09:30:27.778Z,34.08
2022-09-25T09:33:28.298Z,33.28
2022-09-25T09:36:09.738Z,33.15
2022-09-25T09:38:50.636Z,33.20
2022-09-25T09:41:39.281Z,31.95
2022-09-25T09:44:29.375Z,33.80
2022-09-25T09:47:11.483Z,34.00
2022-09-25T09:49:48.111Z,32.72
2022-09-25T09:52:22.636Z,28.55
2022-09-25T09:54:57.671Z,30.38
2022-09-25T09:57:30.266Z,34.20
2022-09-25T10:00:06.768Z,31.75
2022-09-25T10:02:49.630Z,34.30
2022-09-25T10:05:26.550Z,34.80
2022-09-25T10:07:55.786Z,35.13
2022-09-25T10:10:35.202Z,32.55
2022-09-25T10:13:06.859Z,33.33
2022-09-25T10:15:44.937Z,34.45
2022-09-25T10:18:15.650Z,33.38
2022-09-25T10:20:50.799Z,33.60
2022-09-25T10:23:36.366Z,32.00
2022-09-25T10:26:07.347Z,30.48
2022-09-25T10:28:36.826Z,30.60
2022-09-25T10:31:09.075Z,27.65
2022-09-25T10:33:38.131Z,28.52
2022-09-25T10:36:06.964Z,30.35
2022-09-25T10:38:53.403Z,27.48
2022-09-25T10:41:27.432Z,27.20
2022-09-25T10:44:00.232Z,27.10
2022-09-25T10:46:50.348Z,27.80
2022-09-25T10:49:39.881Z,30.08
2022-09-25T10:52:10.766Z,32.42
2022-09-25T10:54:44.861Z,33.95
2022-09-25T10:57:34.503Z,34.25
2022-09-25T11:00:07.227Z,33.60
2022-09-25T11:02:47.526Z,34.83
2022-09-25T11:05:22.225Z,32.95
2022-09-25T11:07:55.188Z,31.45
2022-09-25T11:10:26.920Z,31.67
2022-09-25T11:12:57.896Z,31.15
2022-09-25T11:15:28.527Z,30.02
2022-09-25T11:17:59.917Z,30.73
2022-09-25T11:20:31.900Z,33.78
2022-09-25T11:23:17.774Z,30.15
2022-09-25T11:25:53.698Z,30.02
2022-09-25T11:28:34.876Z,25.45
2022-09-25T11:31:14.559Z,27.27
2022-09-25T11:33:56.397Z,26.65
2022-09-25T11:36:32.983Z,24.00
2022-09-25T11:39:27.350Z,24.02
2022-09-25T11:42:06.490Z,24.38
2022-09-25T11:44:54.360Z,23.35
2022-09-25T11:47:28.201Z,22.38
2022-09-25T11:50:02.062Z,20.45
2022-09-25T11:52:41.100Z,22.23
2022-09-25T11:55:45.785Z,22.75
2022-09-25T11:58:47.070Z,21.05
2022-09-25T12:01:26.636Z,23.88
2022-09-25T12:04:27.690Z,25.38
2022-09-25T12:07:18.128Z,25.27
2022-09-25T12:10:08.406Z,27.08
2022-09-25T12:12:51.707Z,26.15
2022-09-25T12:15:37.423Z,27.33
2022-09-25T12:18:16.088Z,26.05
2022-09-25T12:20:59.832Z,27.63
2022-09-25T12:23:34.502Z,29.25
2022-09-25T12:26:25.870Z,27.92
2022-09-25T12:29:15.514Z,26.48
2022-09-25T12:31:56.479Z,25.88
2022-09-25T12:34:50.696Z,20.50
2022-09-25T12:37:38.334Z,15.05
2022-09-25T12:40:21.995Z,17.17
2022-09-25T12:43:01.866Z,18.00
2022-09-25T12:45:38.795Z,17.45
2022-09-25T12:48:18.386Z,17.33
2022-09-25T12:51:04.955Z,17.42
2022-09-25T12:53:40.387Z,15.55
2022-09-25T12:56:18.387Z,16.25
2022-09-25T12:59:14.748Z,14.88
2022-09-25T13:01:57.631Z,14.40
2022-09-25T13:04:50.209Z,13.40
2022-09-25T13:07:25.100Z,12.73
2022-09-25T13:09:53.653Z,10.80
2022-09-25T13:12:34.413Z,10.35
2022-09-25T13:15:08.803Z,9.70
2022-09-25T13:17:37.783Z,10.85
2022-09-25T13:20:47.981Z,9.35
2022-09-25T13:23:24.631Z,10.88
2022-09-25T13:26:00.503Z,9.73
2022-09-25T13:28:36.920Z,10.38
2022-09-25T13:31:11.192Z,10.50
2022-09-25T13:33:48.688Z,10.25
2022-09-25T13:36:36.115Z,11.23
2022-09-25T13:39:34.771Z,10.82
2022-09-25T13:42:08.024Z,9.13
2022-09-25T13:45:07.893Z,10.27
2022-09-25T13:48:07.210Z,10.73
2022-09-25T13:50:45.758Z,10.90
2022-09-25T13:53:28.998Z,11.88
2022-09-25T13:56:28.604Z,10.60
2022-09-25T13:59:38.269Z,9.93
2022-09-25T14:02:42.897Z,10.00
2022-09-25T14:05:21.039Z,9.43
2022-09-25T14:07:55.983Z,8.30
2022-09-25T14:10:25.515Z,8.13
2022-09-25T14:12:54.542Z,8.45
2022-09-25T14:15:35.025Z,8.48
2022-09-25T14:18:08.954Z,9.27
2022-09-25T14:20:44.484Z,9.35
2022-09-25T14:23:17.248Z,8.70
2022-09-25T14:25:47.505Z,8.23
2022-09-25T14:28:28.245Z,8.63
2022-09-25T14:31:27.927Z,9.10
2022-09-25T14:34:32.805Z,8.27
2022-09-25T14:37:20.224Z,9.43
2022-09-25T14:40:03.490Z,9.50
2022-09-25T14:43:17.058Z,12.75
2022-09-25T14:46:04.482Z,12.02
2022-09-25T14:48:41.415Z,11.23
2022-09-25T14:51:17.627Z,12.85
2022-09-25T14:53:54.724Z,13.68
2022-09-25T14:56:24.332Z,14.13
2022-09-25T14:58:58.822Z,14.60
2022-09-25T15:01:30.354Z,14.05
2022-09-25T15:04:03.003Z,13.82
2022-09-25T15:06:34.932Z,14.15
2022-09-25T15:09:04.194Z,10.00
2022-09-25T15:11:42.672Z,5.93
2022-09-25T15:14:13.201Z,4.22
2022-09-25T15:17:02.279Z,3.63
2022-09-25T15:19:37.750Z,2.90
2022-09-25T15:22:13.932Z,3.17
2022-09-25T15:24:49.960Z,3.38
2022-09-25T15:27:19.315Z,2.67
2022-09-25T15:29:49.930Z,2.55
2022-09-25T15:32:20.459Z,2.65
2022-09-25T15:34:48.985Z,3.05
2022-09-25T15:37:27.821Z,3.03
2022-09-25T15:39:57.531Z,2.90
2022-09-25T15:42:25.926Z,3.72
2022-09-25T15:44:57.339Z,4.28
2022-09-25T15:47:54.915Z,4.30
2022-09-25T15:50:29.279Z,4.70
2022-09-25T15:53:02.855Z,4.70
2022-09-25T15:55:32.717Z,5.68
2022-09-25T15:58:14.770Z,4.85
2022-09-25T16:01:18.575Z,5.28
2022-09-25T16:04:12.573Z,4.03
2022-09-25T16:06:44.579Z,4.00
2022-09-25T16:09:30.355Z,4.40
2022-09-25T16:12:23.219Z,5.50
2022-09-25T16:14:52.884Z,4.47
2022-09-25T16:17:32.811Z,5.30
2022-09-25T16:20:06.429Z,5.45
2022-09-25T16:22:47.655Z,6.93
2022-09-25T16:25:25.765Z,6.53
2022-09-25T16:27:56.081Z,5.53
2022-09-25T16:30:25.372Z,13.93
2022-09-25T16:33:00.072Z,5.18
2022-09-25T16:36:05.264Z,5.55
2022-09-25T16:38:32.005Z,4.95
2022-09-25T16:41:21.511Z,5.28
2022-09-25T16:44:14.248Z,9.05
2022-09-25T16:46:43.591Z,8.35
2022-09-25T16:49:13.063Z,7.93
2022-09-25T16:51:45.510Z,7.93
2022-09-25T16:54:16.094Z,8.98
2022-09-25T16:56:48.390Z,8.65
2022-09-25T16:59:19.692Z,10.60
2022-09-25T17:01:51.709Z,9.15
2022-09-25T17:04:24.110Z,8.77
2022-09-25T17:06:52.785Z,8.52
2022-09-25T17:09:21.337Z,9.57
2022-09-25T17:11:52.008Z,9.60
2022-09-25T17:14:26.278Z,8.65
2022-09-25T17:16:56.609Z,8.63
2022-09-25T17:19:25.675Z,8.63
2022-09-25T17:21:56.128Z,9.80
2022-09-25T17:24:30.517Z,17.73
2022-09-25T17:27:00.199Z,11.68
2022-09-25T17:29:29.160Z,6.53
2022-09-25T17:31:59.122Z,5.43
2022-09-25T17:34:28.626Z,5.93
2022-09-25T17:36:58.009Z,5.53
2022-09-25T17:39:26.631Z,5.10
2022-09-25T17:41:55.258Z,5.43
2022-09-25T17:44:24.902Z,5.00
2022-09-25T17:46:55.685Z,4.43
2022-09-25T17:49:25.197Z,4.45
2022-09-25T17:51:53.895Z,4.75
2022-09-25T17:54:29.083Z,4.85
2022-09-25T17:56:57.454Z,5.00
2022-09-25T17:59:27.064Z,5.40
2022-09-25T18:01:57.241Z,4.63
2022-09-25T18:04:26.985Z,4.95
2022-09-25T18:06:56.731Z,6.18
2022-09-25T18:09:25.048Z,7.35
2022-09-25T18:11:53.361Z,11.68
2022-09-25T18:14:21.625Z,12.20
2022-09-25T18:16:51.314Z,15.55
2022-09-25T18:19:38.692Z,13.70
2022-09-25T18:22:21.524Z,12.20
2022-09-25T18:24:54.260Z,10.52
2022-09-25T18:27:22.806Z,9.38
2022-09-25T18:29:51.209Z,9.55
2022-09-25T18:32:20.987Z,9.73
2022-09-25T18:34:49.265Z,9.95
2022-09-25T18:37:17.645Z,11.68
2022-09-25T18:39:48.137Z,11.10
2022-09-25T18:42:16.955Z,10.82
2022-09-25T18:44:45.436Z,12.85
2022-09-25T18:47:15.193Z,12.10
2022-09-25T18:49:45.391Z,8.90
2022-09-25T18:52:13.961Z,10.15
2022-09-25T18:54:42.529Z,10.90
2022-09-25T18:57:12.752Z,10.40
2022-09-25T18:59:42.326Z,10.85
2022-09-25T19:02:21.065Z,10.20
2022-09-25T19:04:55.538Z,10.07
2022-09-25T19:07:24.869Z,10.85
2022-09-25T19:09:54.204Z,10.35
2022-09-25T19:12:23.016Z,11.45
2022-09-25T19:14:51.715Z,11.10
2022-09-25T19:17:21.307Z,11.00
2022-09-25T19:19:51.628Z,11.27
2022-09-25T19:22:21.847Z,9.93
2022-09-25T19:24:52.680Z,10.55
2022-09-25T19:27:21.369Z,11.23
2022-09-25T19:29:49.652Z,10.35
2022-09-25T19:32:19.532Z,10.93
2022-09-25T19:34:48.400Z,12.25
2022-09-25T19:37:18.678Z,13.45
2022-09-25T19:40:04.268Z,12.57
2022-09-25T19:42:33.747Z,12.43
2022-09-25T19:45:02.430Z,11.40
2022-09-25T19:47:31.850Z,12.40
2022-09-25T19:50:00.509Z,12.27
2022-09-25T19:52:30.152Z,11.88
2022-09-25T19:54:58.486Z,10.25
2022-09-25T19:57:26.953Z,10.27
2022-09-25T19:59:55.648Z,10.02
2022-09-25T20:02:23.920Z,11.13
2022-09-25T20:04:52.617Z,10.57
2022-09-25T20:07:21.032Z,10.30
2022-09-25T20:09:50.875Z,10.25
2022-09-25T20:12:19.242Z,10.52
2022-09-25T20:14:49.117Z,14.60
2022-09-25T20:17:17.628Z,17.20
2022-09-25T20:19:46.289Z,18.52
2022-09-25T20:22:14.584Z,17.45
2022-09-25T20:24:42.939Z,15.27
2022-09-25T20:27:12.597Z,13.23
2022-09-25T20:29:41.223Z,11.18
2022-09-25T20:32:09.474Z,11.27
2022-09-25T20:34:37.749Z,11.52
2022-09-25T20:37:06.579Z,11.15
2022-09-25T20:39:34.852Z,11.82
2022-09-25T20:42:03.144Z,11.60
2022-09-25T20:44:32.769Z,10.98
2022-09-25T20:47:01.023Z,10.82
2022-09-25T20:49:30.083Z,11.85
2022-09-25T20:51:58.345Z,12.50
2022-09-25T20:54:26.862Z,16.88
2022-09-25T20:56:55.309Z,15.85
2022-09-25T20:59:23.638Z,15.90
2022-09-25T21:01:53.683Z,15.60
2022-09-25T21:04:22.055Z,14.60
2022-09-25T21:06:50.341Z,13.50
2022-09-25T21:09:22.726Z,13.82
2022-09-25T21:11:51.413Z,13.65
2022-09-25T21:14:22.119Z,12.90
2022-09-25T21:16:53.086Z,12.98
2022-09-25T21:19:23.259Z,13.73
2022-09-25T21:21:52.037Z,13.18
2022-09-25T21:24:22.137Z,12.95
2022-09-25T21:26:50.858Z,13.43
2022-09-25T21:29:20.023Z,12.20
2022-09-25T21:31:50.705Z,12.02
2022-09-25T21:34:21.035Z,11.48
2022-09-25T21:36:49.962Z,11.35
2022-09-25T21:39:20.864Z,10.68
2022-09-25T21:41:49.802Z,11.55
2022-09-25T21:44:23.485Z,11.43
2022-09-25T21:46:52.043Z,10.75
2022-09-25T21:49:23.078Z,10.70
2022-09-25T21:51:52.446Z,10.38
2022-09-25T21:54:20.768Z,11.35
2022-09-25T21:56:50.077Z,10.45
2022-09-25T21:59:19.140Z,10.98
2022-09-25T22:01:47.660Z,11.40
2022-09-25T22:04:16.765Z,11.10
2022-09-25T22:06:48.305Z,11.20
2022-09-25T22:09:19.741Z,10.13
2022-09-25T22:11:49.299Z,12.18
2022-09-25T22:14:19.092Z,10.32
2022-09-25T22:16:50.438Z,9.27
2022-09-25T22:19:22.580Z,10.63
2022-09-25T22:21:55.225Z,9.82
2022-09-25T22:24:24.143Z,9.60
2022-09-25T22:26:54.660Z,10.02
2022-09-25T22:29:23.499Z,10.45
2022-09-25T22:31:52.197Z,10.98
2022-09-25T22:34:23.414Z,8.82
2022-09-25T22:36:58.960Z,10.60
2022-09-25T22:39:29.925Z,10.30
2022-09-25T22:41:58.733Z,10.10
2022-09-25T22:44:27.370Z,9.80
2022-09-25T22:46:55.867Z,10.02
2022-09-25T22:49:24.524Z,10.00
2022-09-25T22:51:54.122Z,10.75
2022-09-25T22:54:22.857Z,10.25
2022-09-25T22:56:53.859Z,10.45
2022-09-25T22:59:22.106Z,9.70
2022-09-25T23:01:53.443Z,10.25
2022-09-25T23:04:24.459Z,10.10
2022-09-25T23:06:54.600Z,10.32
2022-09-25T23:09:26.026Z,9.68
2022-09-25T23:11:55.869Z,9.45
2022-09-25T23:14:26.875Z,10.07
2022-09-25T23:16:56.818Z,9.50
2022-09-25T23:19:26.217Z,9.95
2022-09-25T23:21:56.733Z,10.15
2022-09-25T23:24:26.469Z,9.82
2022-09-25T23:26:55.326Z,10.13
2022-09-25T23:29:24.394Z,9.57
2022-09-25T23:31:53.302Z,10.40
2022-09-25T23:34:22.078Z,9.70
2022-09-25T23:36:50.619Z,10.02
2022-09-25T23:39:21.691Z,9.88
2022-09-25T23:41:50.304Z,10.38
2022-09-25T23:44:18.704Z,9.65
2022-09-25T23:46:47.088Z,10.60
2022-09-25T23:49:16.041Z,9.98
2022-09-25T23:51:44.369Z,10.25
2022-09-25T23:54:12.861Z,10.43
2022-09-25T23:56:42.906Z,10.57
2022-09-25T23:59:13.391Z,10.57
